createdAt,value
2023-03-07T00:03:08.269Z,-3.16
2023-03-07T00:07:11.074Z,-3.25
2023-03-07T00:11:10.994Z,-3.32
2023-03-07T00:15:14.314Z,-3.34
2023-03-07T00:19:13.995Z,-3.34
2023-03-07T00:23:17.829Z,-3.34
2023-03-07T00:27:17.187Z,-3.38
2023-03-07T00:31:23.389Z,-3.49
2023-03-07T00:35:23.092Z,-3.49
2023-03-07T00:39:26.236Z,-3.50
2023-03-07T00:43:27.211Z,-3.56
2023-03-07T00:47:30.116Z,-3.60
2023-03-07T00:51:30.220Z,-3.58
2023-03-07T00:55:33.070Z,-3.57
2023-03-07T00:59:32.136Z,-3.59
2023-03-07T01:03:36.488Z,-3.63
2023-03-07T01:07:30.276Z,-3.58
2023-03-07T01:11:29.493Z,-3.57
2023-03-07T01:15:31.304Z,-3.64
2023-03-07T01:19:28.454Z,-3.67
2023-03-07T01:23:28.964Z,-3.70
2023-03-07T01:27:26.511Z,-3.76
2023-03-07T01:31:26.942Z,-3.76
2023-03-07T01:35:25.058Z,-3.83
2023-03-07T01:39:27.071Z,-3.83
2023-03-07T01:43:20.045Z,-3.83
2023-03-07T01:47:07.005Z,-3.91
2023-03-07T01:51:22.521Z,-3.88
2023-03-07T01:55:24.211Z,-3.90
2023-03-07T01:59:24.656Z,-3.94
2023-03-07T02:03:29.157Z,-3.99
2023-03-07T02:07:26.750Z,-4.00
2023-03-07T02:11:27.489Z,-4.03
2023-03-07T02:15:24.483Z,-4.11
2023-03-07T02:19:26.512Z,-4.14
2023-03-07T02:23:25.202Z,-4.09
2023-03-07T02:27:11.395Z,-4.11
2023-03-07T02:30:58.469Z,-4.10
2023-03-07T02:34:46.922Z,-4.14
2023-03-07T02:38:37.669Z,-4.13
2023-03-07T02:42:36.408Z,-4.08
2023-03-07T02:46:34.854Z,-3.97
2023-03-07T02:50:35.716Z,-3.85
2023-03-07T02:54:32.299Z,-3.81
2023-03-07T02:58:36.918Z,-3.78
2023-03-07T03:02:33.825Z,-3.76
2023-03-07T03:06:34.239Z,-3.68
2023-03-07T03:10:31.397Z,-3.56
2023-03-07T03:14:33.016Z,-3.51
2023-03-07T03:18:25.257Z,-3.48
2023-03-07T03:22:10.953Z,-3.47
2023-03-07T03:25:59.147Z,-3.44
2023-03-07T03:29:46.808Z,-3.40
2023-03-07T03:33:35.914Z,-3.36
2023-03-07T03:37:21.991Z,-3.32
2023-03-07T03:41:19.574Z,-3.31
2023-03-07T03:44:53.844Z,-3.29
2023-03-07T03:48:48.262Z,-3.29
2023-03-07T03:52:41.488Z,-3.27
2023-03-07T03:56:39.031Z,-3.24
2023-03-07T04:00:39.759Z,-3.20
2023-03-07T04:04:36.610Z,-3.01
2023-03-07T04:08:35.493Z,-2.79
2023-03-07T04:12:38.865Z,-2.43
2023-03-07T04:16:35.701Z,-2.07
2023-03-07T04:20:36.303Z,-1.81
2023-03-07T04:24:33.625Z,-1.57
2023-03-07T04:28:20.416Z,-1.38
2023-03-07T04:32:07.688Z,-1.33
2023-03-07T04:35:54.119Z,-1.22
2023-03-07T04:39:40.990Z,-1.12
2023-03-07T04:43:30.315Z,-1.02
2023-03-07T04:47:16.519Z,-0.93
2023-03-07T04:51:10.737Z,-0.81
2023-03-07T04:55:06.634Z,-0.72
2023-03-07T04:59:07.777Z,-0.68
2023-03-07T05:03:10.574Z,-0.62
2023-03-07T05:07:19.666Z,-0.54
2023-03-07T05:11:16.962Z,-0.46
2023-03-07T05:15:17.617Z,-0.33
2023-03-07T05:19:15.133Z,-0.18
2023-03-07T05:23:35.858Z,0.11
2023-03-07T05:27:32.840Z,0.35
2023-03-07T05:31:35.652Z,0.55
2023-03-07T05:35:32.490Z,0.77
2023-03-07T05:39:34.418Z,0.94
2023-03-07T05:43:32.047Z,1.19
2023-03-07T05:47:34.013Z,1.58
2023-03-07T05:51:30.958Z,1.86
2023-03-07T05:55:31.632Z,2.01
2023-03-07T05:59:30.197Z,2.25
2023-03-07T06:03:30.727Z,2.48
2023-03-07T06:07:28.292Z,2.65
2023-03-07T06:11:30.119Z,2.78
2023-03-07T06:15:29.238Z,3.05
2023-03-07T06:19:36.034Z,3.31
2023-03-07T06:23:33.852Z,3.49
2023-03-07T06:27:34.901Z,3.71
2023-03-07T06:31:31.983Z,3.90
2023-03-07T06:35:32.863Z,4.16
2023-03-07T06:39:31.378Z,4.47
2023-03-07T06:43:31.975Z,4.70
2023-03-07T06:47:32.415Z,4.78
2023-03-07T06:51:29.828Z,4.80
2023-03-07T06:55:35.174Z,4.85
2023-03-07T06:59:33.019Z,4.91
2023-03-07T07:03:31.244Z,5.04
2023-03-07T07:07:33.932Z,5.20
2023-03-07T07:11:31.010Z,5.37
2023-03-07T07:15:33.661Z,5.45
2023-03-07T07:19:30.839Z,5.57
2023-03-07T07:23:31.793Z,5.73
2023-03-07T07:27:29.044Z,5.84
2023-03-07T07:31:29.906Z,5.86
2023-03-07T07:35:27.261Z,5.92
2023-03-07T07:39:31.098Z,6.07
2023-03-07T07:43:28.106Z,6.33
2023-03-07T07:47:38.043Z,6.47
2023-03-07T07:51:34.670Z,6.63
2023-03-07T07:55:35.501Z,6.88
2023-03-07T07:59:35.783Z,7.00
2023-03-07T08:03:36.246Z,7.06
2023-03-07T08:07:32.911Z,7.16
2023-03-07T08:11:33.252Z,7.16
2023-03-07T08:15:30.852Z,7.13
2023-03-07T08:19:31.429Z,7.07
2023-03-07T08:23:28.053Z,6.94
2023-03-07T08:27:26.381Z,6.79
2023-03-07T08:31:27.875Z,6.87
2023-03-07T08:35:25.871Z,6.90
2023-03-07T08:39:23.956Z,6.86
2023-03-07T08:43:23.586Z,6.87
2023-03-07T08:47:20.279Z,6.93
2023-03-07T08:51:20.969Z,7.07
2023-03-07T08:55:18.023Z,7.25
2023-03-07T09:00:13.295Z,7.47
2023-03-07T09:04:10.925Z,7.70
2023-03-07T09:08:11.438Z,7.87
2023-03-07T09:12:09.427Z,8.17
2023-03-07T09:16:09.466Z,8.35
2023-03-07T09:20:05.451Z,8.51
2023-03-07T09:24:04.843Z,8.68
2023-03-07T09:28:05.736Z,8.80
2023-03-07T09:32:02.888Z,8.87
2023-03-07T09:36:06.502Z,8.92
2023-03-07T09:40:02.844Z,8.89
2023-03-07T09:44:03.095Z,9.00
2023-03-07T09:48:24.654Z,9.03
2023-03-07T09:52:25.142Z,9.10
2023-03-07T09:56:23.501Z,9.16
2023-03-07T10:00:23.832Z,9.24
2023-03-07T10:04:20.781Z,9.20
2023-03-07T10:08:20.850Z,9.18
2023-03-07T10:12:20.950Z,9.23
2023-03-07T10:16:19.132Z,9.30
2023-03-07T10:20:19.636Z,9.41
2023-03-07T10:24:17.079Z,9.32
2023-03-07T10:28:17.675Z,9.28
2023-03-07T10:32:14.770Z,9.21
2023-03-07T10:36:16.009Z,9.04
2023-03-07T10:40:12.535Z,8.73
2023-03-07T10:44:13.459Z,8.33
2023-03-07T10:48:11.080Z,8.03
2023-03-07T10:52:12.562Z,7.64
2023-03-07T10:56:08.504Z,7.25
2023-03-07T11:00:09.181Z,6.97
2023-03-07T11:04:05.733Z,6.74
2023-03-07T11:08:10.095Z,6.56
2023-03-07T11:11:49.395Z,6.45
2023-03-07T11:15:47.019Z,6.39
2023-03-07T11:19:52.128Z,6.34
2023-03-07T11:23:49.620Z,6.33
2023-03-07T11:27:50.162Z,6.41
2023-03-07T11:31:46.778Z,6.49
2023-03-07T11:35:48.172Z,6.68
2023-03-07T11:39:48.525Z,6.77
2023-03-07T11:43:46.622Z,6.89
2023-03-07T11:47:46.927Z,6.95
2023-03-07T11:51:40.758Z,6.98
2023-03-07T11:55:41.365Z,7.05
2023-03-07T11:59:33.541Z,7.25
2023-03-07T12:03:33.848Z,7.36
2023-03-07T12:07:32.339Z,7.63
2023-03-07T12:11:32.988Z,7.77
2023-03-07T12:15:29.748Z,7.78
2023-03-07T12:19:32.631Z,7.82
2023-03-07T12:23:29.760Z,7.89
2023-03-07T12:27:30.202Z,7.88
2023-03-07T12:31:27.976Z,7.88
2023-03-07T12:35:28.219Z,7.98
2023-03-07T12:39:23.014Z,8.02
2023-03-07T12:43:23.487Z,8.09
2023-03-07T12:47:19.802Z,8.17
2023-03-07T12:51:19.851Z,8.25
2023-03-07T12:55:16.580Z,8.26
2023-03-07T12:59:16.819Z,8.29
2023-03-07T13:03:12.955Z,8.13
2023-03-07T13:07:13.585Z,7.94
2023-03-07T13:11:10.963Z,7.97
2023-03-07T13:15:11.205Z,7.84
2023-03-07T13:19:06.502Z,7.83
2023-03-07T13:22:37.441Z,7.86
2023-03-07T13:26:23.505Z,7.81
2023-03-07T13:30:10.024Z,7.80
2023-03-07T13:33:56.392Z,7.73
2023-03-07T13:37:42.383Z,7.73
2023-03-07T13:41:28.425Z,7.79
2023-03-07T13:45:14.864Z,7.78
2023-03-07T13:49:01.008Z,7.79
2023-03-07T13:52:54.148Z,7.83
2023-03-07T13:56:47.062Z,7.84
2023-03-07T14:00:43.916Z,7.77
2023-03-07T14:04:44.735Z,7.73
2023-03-07T14:08:40.738Z,7.76
2023-03-07T14:12:40.951Z,7.91
2023-03-07T14:16:38.203Z,7.99
2023-03-07T14:20:38.785Z,7.98
2023-03-07T14:24:34.774Z,7.89
2023-03-07T14:28:35.923Z,7.76
2023-03-07T14:32:22.113Z,7.66
2023-03-07T14:36:08.611Z,7.55
2023-03-07T14:39:55.106Z,7.51
2023-03-07T14:43:41.211Z,7.45
2023-03-07T14:47:27.605Z,7.44
2023-03-07T14:51:13.759Z,7.43
2023-03-07T14:55:06.049Z,7.31
2023-03-07T14:59:05.198Z,7.23
2023-03-07T15:03:05.530Z,7.11
2023-03-07T15:07:01.947Z,6.96
2023-03-07T15:11:01.816Z,6.85
2023-03-07T15:14:58.154Z,6.74
2023-03-07T15:18:58.481Z,6.55
2023-03-07T15:22:44.408Z,6.34
2023-03-07T15:26:30.228Z,6.15
2023-03-07T15:30:16.549Z,5.92
2023-03-07T15:34:02.458Z,5.72
2023-03-07T15:37:48.492Z,5.53
2023-03-07T15:41:40.529Z,5.29
2023-03-07T15:45:34.714Z,5.04
2023-03-07T15:49:37.649Z,4.91
2023-03-07T15:53:34.461Z,4.73
2023-03-07T15:57:34.555Z,4.53
2023-03-07T16:01:31.215Z,4.38
2023-03-07T16:05:31.661Z,4.20
2023-03-07T16:09:28.079Z,4.03
2023-03-07T16:13:28.009Z,3.85
2023-03-07T16:17:25.053Z,3.62
2023-03-07T16:21:11.444Z,3.41
2023-03-07T16:24:57.464Z,3.21
2023-03-07T16:28:44.205Z,3.03
2023-03-07T16:32:31.183Z,2.89
2023-03-07T16:36:17.392Z,2.63
2023-03-07T16:40:03.516Z,2.43
2023-03-07T16:43:59.256Z,2.25
2023-03-07T16:48:00.366Z,2.13
2023-03-07T16:52:05.653Z,2.00
2023-03-07T16:56:07.118Z,1.89
2023-03-07T17:00:03.313Z,1.76
2023-03-07T17:04:00.221Z,1.65
2023-03-07T17:08:01.461Z,1.54
2023-03-07T17:11:58.453Z,1.42
2023-03-07T17:15:58.709Z,1.22
2023-03-07T17:19:55.610Z,1.09
2023-03-07T17:23:56.919Z,1.05
2023-03-07T17:27:54.916Z,0.97
2023-03-07T17:31:55.272Z,0.79
2023-03-07T17:35:53.709Z,0.73
2023-03-07T17:39:54.200Z,0.69
2023-03-07T17:43:50.216Z,0.58
2023-03-07T17:47:51.000Z,0.53
2023-03-07T17:51:48.456Z,0.39
2023-03-07T17:55:48.602Z,0.29
2023-03-07T17:59:45.152Z,0.22
2023-03-07T18:03:45.297Z,0.15
2023-03-07T18:07:42.522Z,0.07
2023-03-07T18:11:42.914Z,0.02
2023-03-07T18:15:40.677Z,-0.02
2023-03-07T18:19:40.876Z,-0.08
2023-03-07T18:23:37.525Z,-0.18
2023-03-07T18:27:34.338Z,-0.28
2023-03-07T18:31:36.143Z,-0.29
2023-03-07T18:35:34.782Z,-0.38
2023-03-07T18:39:33.659Z,-0.46
2023-03-07T18:43:33.542Z,-0.53
2023-03-07T18:47:33.640Z,-0.57
2023-03-07T18:51:34.514Z,-0.66
2023-03-07T18:55:31.852Z,-0.68
2023-03-07T18:59:33.414Z,-0.76
2023-03-07T19:03:30.721Z,-0.82
2023-03-07T19:07:31.080Z,-0.88
2023-03-07T19:11:29.688Z,-0.89
2023-03-07T19:15:26.766Z,-0.89
2023-03-07T19:19:27.375Z,-0.93
2023-03-07T19:23:24.658Z,-0.98
2023-03-07T19:27:27.011Z,-1.00
2023-03-07T19:31:23.581Z,-1.07
2023-03-07T19:35:24.427Z,-1.12
2023-03-07T19:39:21.390Z,-1.12
2023-03-07T19:43:22.279Z,-1.16
2023-03-07T19:47:18.356Z,-1.15
2023-03-07T19:51:14.399Z,-1.12
2023-03-07T19:55:14.700Z,-1.14
2023-03-07T19:59:11.565Z,-1.19
2023-03-07T20:03:11.930Z,-1.26
2023-03-07T20:07:08.959Z,-1.33
2023-03-07T20:11:09.859Z,-1.42
2023-03-07T20:15:07.593Z,-1.47
2023-03-07T20:19:09.174Z,-1.52
2023-03-07T20:23:07.983Z,-1.58
2023-03-07T20:27:08.546Z,-1.68
2023-03-07T20:31:05.707Z,-1.72
2023-03-07T20:35:07.483Z,-1.75
2023-03-07T20:39:04.459Z,-1.77
2023-03-07T20:43:05.270Z,-1.76
2023-03-07T20:47:01.496Z,-1.68
2023-03-07T20:51:01.690Z,-1.67
2023-03-07T20:54:58.928Z,-1.68
2023-03-07T20:58:59.848Z,-1.73
2023-03-07T21:03:06.022Z,-1.79
2023-03-07T21:07:10.707Z,-1.80
2023-03-07T21:11:09.761Z,-1.71
2023-03-07T21:15:13.278Z,-1.69
2023-03-07T21:19:15.706Z,-1.68
2023-03-07T21:23:18.802Z,-1.59
2023-03-07T21:27:19.652Z,-1.63
2023-03-07T21:31:22.736Z,-1.73
2023-03-07T21:35:23.742Z,-1.84
2023-03-07T21:39:26.811Z,-1.90
2023-03-07T21:43:26.736Z,-1.98
2023-03-07T21:47:30.669Z,-2.04
2023-03-07T21:51:31.809Z,-2.07
2023-03-07T21:55:34.922Z,-2.09
2023-03-07T21:59:34.621Z,-2.16
2023-03-07T22:03:37.924Z,-2.23
2023-03-07T22:07:36.907Z,-2.27
2023-03-07T22:11:39.722Z,-2.29
2023-03-07T22:15:40.760Z,-2.37
2023-03-07T22:19:46.309Z,-2.40
2023-03-07T22:23:44.856Z,-2.44
2023-03-07T22:27:48.681Z,-2.43
2023-03-07T22:31:48.858Z,-2.48
2023-03-07T22:35:51.757Z,-2.53
2023-03-07T22:39:53.780Z,-2.54
2023-03-07T22:43:57.422Z,-2.60
2023-03-07T22:48:00.432Z,-2.63
2023-03-07T22:51:59.001Z,-2.64
2023-03-07T22:56:01.885Z,-2.65
2023-03-07T23:00:08.859Z,-2.68
2023-03-07T23:04:12.378Z,-2.65
2023-03-07T23:07:52.611Z,-2.58
2023-03-07T23:11:56.997Z,-2.55
2023-03-07T23:15:57.630Z,-2.49
2023-03-07T23:19:57.947Z,-2.49
2023-03-07T23:23:58.517Z,-2.44
2023-03-07T23:27:57.034Z,-2.38
2023-03-07T23:32:00.219Z,-2.26
2023-03-07T23:35:57.400Z,-2.14
2023-03-07T23:39:57.859Z,-1.98
2023-03-07T23:43:59.113Z,-1.81
2023-03-07T23:47:56.949Z,-1.65
2023-03-07T23:51:58.014Z,-1.57
2023-03-07T23:55:55.921Z,-1.49
2023-03-07T23:59:56.949Z,-1.45
